createdAt,value
2018-05-26T00:01:11.380Z,99.90
2018-05-26T00:03:39.629Z,99.90
2018-05-26T00:06:07.124Z,99.90
2018-05-26T00:08:35.332Z,99.90
2018-05-26T00:11:02.816Z,99.90
2018-05-26T00:13:30.332Z,99.90
2018-05-26T00:15:58.104Z,99.90
2018-05-26T00:18:28.622Z,99.90
2018-05-26T00:20:56.868Z,99.90
2018-05-26T00:23:24.723Z,99.90
2018-05-26T00:25:52.201Z,99.90
2018-05-26T00:28:19.679Z,99.90
2018-05-26T00:30:47.212Z,99.90
2018-05-26T00:33:14.669Z,99.90
2018-05-26T00:35:42.140Z,99.90
2018-05-26T00:38:09.596Z,99.90
2018-05-26T00:40:38.016Z,99.90
2018-05-26T00:43:05.728Z,99.90
2018-05-26T00:45:34.007Z,99.90
2018-05-26T00:48:01.656Z,99.90
2018-05-26T00:50:29.223Z,99.90
2018-05-26T00:52:57.628Z,99.90
2018-05-26T00:55:25.133Z,99.90
2018-05-26T00:57:52.920Z,99.90
2018-05-26T01:00:20.381Z,99.90
2018-05-26T01:02:53.191Z,99.90
2018-05-26T01:05:20.701Z,99.90
2018-05-26T01:07:48.189Z,99.90
2018-05-26T01:10:15.648Z,99.90
2018-05-26T01:12:43.412Z,99.90
2018-05-26T01:15:12.382Z,99.90
2018-05-26T01:17:44.261Z,99.90
2018-05-26T01:20:12.078Z,99.90
2018-05-26T01:22:39.548Z,99.90
2018-05-26T01:25:07.132Z,99.90
2018-05-26T01:27:34.609Z,99.90
2018-05-26T01:30:02.217Z,99.90
2018-05-26T01:32:29.823Z,99.90
2018-05-26T01:35:04.433Z,99.90
2018-05-26T01:37:32.157Z,99.90
2018-05-26T01:39:59.644Z,99.90
2018-05-26T01:42:27.115Z,99.90
2018-05-26T01:44:54.580Z,99.90
2018-05-26T01:47:23.053Z,99.90
2018-05-26T01:49:51.336Z,99.90
2018-05-26T01:52:18.838Z,99.90
2018-05-26T01:54:46.352Z,99.90
2018-05-26T01:57:13.921Z,99.90
2018-05-26T01:59:41.393Z,99.90
2018-05-26T02:02:09.551Z,99.90
2018-05-26T02:04:37.006Z,99.90
2018-05-26T02:07:04.617Z,99.90
2018-05-26T02:09:32.127Z,99.90
2018-05-26T02:11:59.635Z,99.90
2018-05-26T02:14:27.118Z,99.90
2018-05-26T02:16:54.597Z,99.90
2018-05-26T02:19:22.843Z,99.90
2018-05-26T02:21:50.317Z,99.90
2018-05-26T02:24:18.594Z,99.90
2018-05-26T02:26:46.064Z,99.90
2018-05-26T02:29:13.715Z,99.90
2018-05-26T02:31:41.272Z,99.90
2018-05-26T02:34:12.786Z,99.90
2018-05-26T02:36:40.398Z,99.90
2018-05-26T02:39:08.862Z,99.90
2018-05-26T02:41:36.340Z,99.90
2018-05-26T02:44:03.794Z,99.90
2018-05-26T02:46:31.287Z,99.90
2018-05-26T02:49:02.184Z,99.90
2018-05-26T02:51:29.693Z,99.90
2018-05-26T02:53:58.294Z,99.90
2018-05-26T02:56:25.785Z,99.90
2018-05-26T02:58:53.562Z,99.90
2018-05-26T03:01:21.040Z,99.90
2018-05-26T03:03:48.039Z,99.90
2018-05-26T03:06:22.028Z,99.90
2018-05-26T03:08:55.003Z,99.90
2018-05-26T03:11:28.845Z,99.90
2018-05-26T03:14:03.389Z,99.90
2018-05-26T03:16:31.674Z,99.90
2018-05-26T03:19:00.869Z,99.90
2018-05-26T03:21:28.380Z,99.90
2018-05-26T03:23:55.857Z,99.90
2018-05-26T03:26:23.337Z,99.90
2018-05-26T03:28:50.801Z,99.90
2018-05-26T03:31:19.021Z,99.90
2018-05-26T03:33:46.482Z,99.90
2018-05-26T03:36:13.991Z,99.90
2018-05-26T03:38:41.474Z,99.90
2018-05-26T03:41:09.037Z,99.90
2018-05-26T03:43:36.507Z,99.90
2018-05-26T03:46:04.115Z,99.90
2018-05-26T03:48:31.584Z,99.90
2018-05-26T03:51:03.585Z,99.90
2018-05-26T03:53:31.161Z,99.90
2018-05-26T03:56:10.483Z,99.90
2018-05-26T03:58:49.807Z,99.90
2018-05-26T04:01:17.264Z,99.90
2018-05-26T04:03:44.714Z,99.90
2018-05-26T04:06:15.415Z,99.90
2018-05-26T04:08:42.960Z,99.90
2018-05-26T04:11:11.088Z,99.90
2018-05-26T04:13:38.530Z,99.90
2018-05-26T04:16:06.027Z,99.90
2018-05-26T04:18:33.521Z,99.90
2018-05-26T04:21:04.723Z,99.90
2018-05-26T04:23:32.206Z,99.90
2018-05-26T04:26:00.621Z,99.90
2018-05-26T04:28:28.917Z,99.90
2018-05-26T04:30:56.379Z,99.90
2018-05-26T04:33:23.872Z,99.90
2018-05-26T04:35:51.357Z,99.90
2018-05-26T04:38:18.876Z,99.90
2018-05-26T04:40:46.387Z,99.90
2018-05-26T04:43:14.617Z,99.90
2018-05-26T04:45:42.074Z,99.90
2018-05-26T04:48:09.535Z,99.90
2018-05-26T04:50:37.024Z,99.90
2018-05-26T04:53:04.505Z,99.90
2018-05-26T04:55:31.985Z,99.90
2018-05-26T04:57:59.702Z,99.90
2018-05-26T05:00:29.118Z,99.90
2018-05-26T05:02:56.583Z,99.90
2018-05-26T05:05:24.136Z,99.90
2018-05-26T05:07:51.638Z,99.90
2018-05-26T05:10:19.100Z,99.90
2018-05-26T05:12:46.580Z,99.90
2018-05-26T05:15:14.040Z,99.90
2018-05-26T05:17:43.539Z,99.90
2018-05-26T05:20:11.051Z,99.90
2018-05-26T05:22:38.514Z,99.90
2018-05-26T05:25:06.590Z,99.90
2018-05-26T05:27:34.092Z,99.90
2018-05-26T05:30:01.567Z,99.10
2018-05-26T05:32:29.878Z,96.00
2018-05-26T05:34:57.316Z,95.90
2018-05-26T05:37:26.378Z,93.60
2018-05-26T05:39:53.876Z,93.50
2018-05-26T05:42:21.337Z,92.80
2018-05-26T05:44:48.797Z,91.70
2018-05-26T05:47:16.285Z,90.70
2018-05-26T05:49:43.764Z,90.20
2018-05-26T05:52:22.581Z,89.90
2018-05-26T05:54:50.050Z,88.80
2018-05-26T05:57:17.552Z,87.70
2018-05-26T05:59:45.944Z,86.30
2018-05-26T06:02:13.419Z,84.40
2018-05-26T06:04:40.925Z,83.20
2018-05-26T06:07:08.484Z,81.70
2018-05-26T06:09:35.942Z,81.10
2018-05-26T06:12:03.447Z,80.90
2018-05-26T06:14:31.032Z,80.80
2018-05-26T06:16:59.432Z,79.30
2018-05-26T06:19:26.931Z,78.70
2018-05-26T06:21:54.406Z,79.00
2018-05-26T06:24:21.865Z,79.50
2018-05-26T06:26:49.343Z,80.00
2018-05-26T06:29:16.807Z,79.40
2018-05-26T06:31:44.331Z,79.80
2018-05-26T06:34:11.767Z,81.80
2018-05-26T06:36:39.259Z,86.40
2018-05-26T06:39:07.659Z,90.30
2018-05-26T06:41:35.217Z,93.00
2018-05-26T06:44:02.673Z,95.40
2018-05-26T06:46:30.173Z,98.00
2018-05-26T06:48:57.679Z,99.90
2018-05-26T06:51:25.219Z,99.90
2018-05-26T06:53:57.165Z,99.90
2018-05-26T06:56:24.648Z,99.90
2018-05-26T06:58:52.121Z,99.90
2018-05-26T07:01:19.597Z,99.90
2018-05-26T07:03:47.110Z,99.90
2018-05-26T07:06:14.573Z,99.90
2018-05-26T07:11:20.436Z,99.90
2018-05-26T07:13:47.891Z,99.90
2018-05-26T07:16:15.366Z,99.90
2018-05-26T07:18:42.873Z,99.90
2018-05-26T07:21:10.365Z,99.90
2018-05-26T07:23:41.346Z,99.90
2018-05-26T07:26:08.846Z,99.90
2018-05-26T07:28:36.785Z,99.90
2018-05-26T07:31:04.276Z,99.90
2018-05-26T07:33:31.743Z,99.90
2018-05-26T07:35:59.188Z,99.90
2018-05-26T07:38:30.806Z,99.90
2018-05-26T07:40:58.268Z,99.90
2018-05-26T07:43:26.501Z,99.90
2018-05-26T07:45:54.026Z,99.90
2018-05-26T07:48:21.482Z,99.90
2018-05-26T07:50:48.941Z,99.90
2018-05-26T07:53:16.573Z,99.90
2018-05-26T07:55:47.179Z,99.90
2018-05-26T07:58:17.081Z,99.90
2018-05-26T08:00:44.560Z,99.90
2018-05-26T08:03:12.058Z,99.90
2018-05-26T08:05:40.298Z,99.90
2018-05-26T08:08:07.841Z,99.90
2018-05-26T08:10:39.657Z,99.90
2018-05-26T08:13:07.212Z,99.90
2018-05-26T08:15:36.275Z,99.90
2018-05-26T08:18:03.774Z,99.90
2018-05-26T08:20:31.274Z,99.90
2018-05-26T08:22:58.729Z,99.90
2018-05-26T08:25:26.180Z,99.90
2018-05-26T08:27:55.076Z,99.90
2018-05-26T08:30:22.552Z,99.90
2018-05-26T08:32:50.020Z,99.90
2018-05-26T08:35:17.491Z,99.90
2018-05-26T08:37:45.027Z,99.90
2018-05-26T08:40:12.778Z,99.90
2018-05-26T08:42:43.668Z,99.90
2018-05-26T08:45:11.481Z,99.90
2018-05-26T08:47:38.960Z,99.90
2018-05-26T08:50:06.429Z,99.90
2018-05-26T08:52:33.930Z,99.90
2018-05-26T08:55:01.432Z,99.90
2018-05-26T08:57:29.737Z,99.90
2018-05-26T08:59:58.111Z,99.90
2018-05-26T09:02:25.592Z,99.90
2018-05-26T09:04:53.077Z,99.90
2018-05-26T09:07:20.571Z,99.90
2018-05-26T09:09:48.810Z,99.90
2018-05-26T09:12:21.999Z,99.90
2018-05-26T09:14:52.641Z,99.90
2018-05-26T09:17:20.137Z,99.90
2018-05-26T09:19:49.357Z,99.90
2018-05-26T09:22:17.772Z,99.90
2018-05-26T09:24:46.125Z,99.90
2018-05-26T09:27:16.823Z,99.90
2018-05-26T09:29:45.080Z,99.90
2018-05-26T09:32:15.163Z,99.90
2018-05-26T09:34:43.476Z,99.90
2018-05-26T09:37:15.272Z,99.90
2018-05-26T09:39:44.508Z,99.90
2018-05-26T09:42:15.927Z,99.90
2018-05-26T09:44:44.567Z,99.90
2018-05-26T09:47:13.060Z,99.90
2018-05-26T09:49:40.646Z,99.90
2018-05-26T09:52:08.978Z,99.90
2018-05-26T09:54:38.597Z,99.90
2018-05-26T09:57:06.368Z,99.90
2018-05-26T09:59:34.240Z,99.90
2018-05-26T10:02:03.851Z,99.90
2018-05-26T10:04:31.369Z,99.90
2018-05-26T10:06:58.859Z,99.90
2018-05-26T10:09:27.101Z,99.20
2018-05-26T10:11:54.681Z,99.20
2018-05-26T10:14:22.178Z,98.80
2018-05-26T10:16:49.638Z,99.30
2018-05-26T10:19:18.048Z,99.00
2018-05-26T10:21:45.523Z,99.50
2018-05-26T10:24:13.252Z,97.50
2018-05-26T10:26:44.833Z,96.70
2018-05-26T10:29:13.333Z,97.10
2018-05-26T10:31:41.707Z,98.20
2018-05-26T10:34:09.860Z,97.40
2018-05-26T10:36:38.644Z,96.60
2018-05-26T10:39:07.945Z,97.20
2018-05-26T10:41:40.358Z,96.50
2018-05-26T10:46:44.160Z,95.60
2018-05-26T10:49:13.014Z,95.40
2018-05-26T10:51:40.578Z,95.10
2018-05-26T10:54:08.149Z,93.90
2018-05-26T10:56:36.992Z,95.80
2018-05-26T10:59:05.138Z,93.90
2018-05-26T11:01:32.780Z,94.10
2018-05-26T11:04:03.036Z,94.70
2018-05-26T11:09:25.149Z,93.10
2018-05-26T11:11:55.162Z,93.70
2018-05-26T11:14:24.236Z,93.70
2018-05-26T11:16:51.883Z,93.00
2018-05-26T11:19:20.377Z,92.80
2018-05-26T11:21:47.952Z,93.70
2018-05-26T11:24:16.965Z,93.30
2018-05-26T11:26:44.817Z,93.30
2018-05-26T11:29:14.121Z,91.90
2018-05-26T11:31:41.915Z,91.90
2018-05-26T11:34:09.376Z,91.60
2018-05-26T11:36:38.596Z,91.30
2018-05-26T11:39:06.093Z,91.30
2018-05-26T11:41:33.837Z,91.40
2018-05-26T11:44:03.049Z,92.00
2018-05-26T11:46:30.592Z,92.10
2018-05-26T11:48:58.992Z,91.30
2018-05-26T11:51:27.011Z,92.10
2018-05-26T11:53:54.837Z,92.40
2018-05-26T11:56:22.749Z,91.30
2018-05-26T11:58:51.888Z,90.40
2018-05-26T12:01:19.406Z,90.30
2018-05-26T12:03:48.169Z,90.70
2018-05-26T12:06:16.314Z,91.20
2018-05-26T12:08:44.787Z,91.60
2018-05-26T12:11:13.408Z,91.10
2018-05-26T12:13:42.048Z,91.00
2018-05-26T12:16:09.576Z,91.10
2018-05-26T12:18:38.177Z,91.00
2018-05-26T12:21:09.286Z,91.30
2018-05-26T12:23:37.865Z,91.30
2018-05-26T12:26:06.844Z,91.30
2018-05-26T12:28:38.825Z,91.30
2018-05-26T12:31:06.701Z,91.90
2018-05-26T12:33:34.256Z,91.50
2018-05-26T12:36:03.124Z,91.00
2018-05-26T12:38:30.620Z,91.00
2018-05-26T12:40:58.129Z,91.30
2018-05-26T12:43:25.657Z,91.40
2018-05-26T12:45:53.266Z,91.60
2018-05-26T12:48:20.757Z,92.00
2018-05-26T12:50:48.234Z,91.10
2018-05-26T12:53:15.811Z,90.50
2018-05-26T12:55:43.267Z,90.60
2018-05-26T12:58:10.724Z,90.30
2018-05-26T13:00:38.244Z,90.80
2018-05-26T13:03:05.741Z,90.60
2018-05-26T13:05:34.152Z,90.60
2018-05-26T13:08:01.612Z,90.50
2018-05-26T13:10:29.094Z,90.80
2018-05-26T13:12:57.357Z,90.50
2018-05-26T13:15:25.638Z,91.10
2018-05-26T13:17:53.137Z,91.00
2018-05-26T13:20:20.589Z,91.10
2018-05-26T13:22:48.083Z,91.40
2018-05-26T13:25:15.582Z,92.30
2018-05-26T13:27:43.060Z,93.30
2018-05-26T13:30:13.866Z,94.40
2018-05-26T13:32:41.349Z,93.50
2018-05-26T13:35:08.894Z,90.30
2018-05-26T13:37:37.156Z,88.60
2018-05-26T13:40:04.672Z,88.40
2018-05-26T13:42:32.163Z,88.20
2018-05-26T13:45:04.125Z,87.20
2018-05-26T13:47:32.242Z,86.80
2018-05-26T13:49:59.734Z,87.30
2018-05-26T13:52:27.995Z,91.10
2018-05-26T13:54:55.452Z,91.10
2018-05-26T13:57:22.956Z,93.50
2018-05-26T13:59:55.007Z,93.30
2018-05-26T14:02:22.490Z,91.90
2018-05-26T14:04:50.799Z,92.20
2018-05-26T14:07:18.253Z,92.20
2018-05-26T14:09:46.748Z,91.80
2018-05-26T14:12:14.203Z,92.40
2018-05-26T14:14:41.696Z,86.90
2018-05-26T14:17:09.174Z,88.80
2018-05-26T14:19:36.668Z,90.50
2018-05-26T14:22:04.113Z,91.10
2018-05-26T14:24:31.600Z,89.90
2018-05-26T14:27:00.003Z,90.20
2018-05-26T14:29:27.477Z,90.50
2018-05-26T14:31:59.353Z,90.60
2018-05-26T14:34:26.822Z,90.10
2018-05-26T14:36:55.223Z,90.30
2018-05-26T14:39:22.678Z,85.30
2018-05-26T14:41:50.171Z,87.10
2018-05-26T14:44:18.069Z,88.90
2018-05-26T14:46:50.100Z,90.90
2018-05-26T14:49:17.569Z,92.00
2018-05-26T14:51:45.825Z,94.10
2018-05-26T14:54:13.305Z,94.10
2018-05-26T14:56:41.576Z,91.50
2018-05-26T14:59:09.697Z,91.50
2018-05-26T15:01:37.161Z,91.00
2018-05-26T15:04:04.652Z,90.80
2018-05-26T15:06:32.118Z,93.10
2018-05-26T15:08:59.638Z,92.90
2018-05-26T15:11:27.133Z,93.40
2018-05-26T15:13:54.593Z,92.50
2018-05-26T15:16:25.735Z,91.00
2018-05-26T15:18:54.481Z,87.70
2018-05-26T15:21:22.031Z,87.70
2018-05-26T15:23:49.548Z,90.30
2018-05-26T15:26:18.704Z,87.80
2018-05-26T15:28:46.208Z,87.70
2018-05-26T15:31:14.434Z,88.90
2018-05-26T15:33:45.703Z,88.80
2018-05-26T15:36:13.177Z,87.40
2018-05-26T15:38:40.659Z,90.00
2018-05-26T15:41:08.886Z,88.30
2018-05-26T15:43:36.348Z,88.30
2018-05-26T15:46:03.808Z,86.00
2018-05-26T15:48:32.204Z,84.80
2018-05-26T15:51:00.522Z,87.70
2018-05-26T15:53:27.982Z,87.70
2018-05-26T15:55:55.477Z,83.60
2018-05-26T15:58:22.949Z,88.60
2018-05-26T16:00:50.398Z,84.70
2018-05-26T16:03:17.899Z,81.10
2018-05-26T16:05:46.043Z,80.20
2018-05-26T16:08:14.306Z,82.00
2018-05-26T16:10:41.756Z,82.00
2018-05-26T16:13:09.437Z,86.30
2018-05-26T16:15:36.904Z,80.90
2018-05-26T16:18:06.107Z,78.10
2018-05-26T16:20:34.363Z,76.90
2018-05-26T16:23:01.963Z,76.80
2018-05-26T16:25:30.858Z,70.40
2018-05-26T16:27:58.314Z,70.30
2018-05-26T16:30:25.785Z,68.70
2018-05-26T16:32:57.042Z,66.90
2018-05-26T16:35:25.827Z,61.30
2018-05-26T16:37:53.307Z,61.10
2018-05-26T16:40:20.768Z,60.20
2018-05-26T16:42:48.245Z,59.10
2018-05-26T16:45:16.567Z,58.50
2018-05-26T16:47:50.202Z,63.80
2018-05-26T16:50:19.431Z,62.80
2018-05-26T16:52:48.249Z,65.70
2018-05-26T16:55:15.745Z,65.60
2018-05-26T16:57:44.466Z,67.70
2018-05-26T17:00:12.982Z,70.20
2018-05-26T17:02:41.361Z,71.00
2018-05-26T17:05:12.085Z,72.40
2018-05-26T17:07:40.133Z,72.40
2018-05-26T17:10:07.672Z,74.00
2018-05-26T17:12:35.145Z,75.60
2018-05-26T17:15:03.451Z,73.40
2018-05-26T17:17:30.945Z,73.40
2018-05-26T17:19:59.327Z,73.90
2018-05-26T17:22:26.879Z,75.00
2018-05-26T17:24:54.355Z,77.90
2018-05-26T17:27:22.791Z,79.10
2018-05-26T17:29:50.927Z,81.20
2018-05-26T17:32:19.450Z,82.30
2018-05-26T17:34:52.723Z,82.20
2018-05-26T17:37:20.937Z,82.90
2018-05-26T17:39:48.474Z,83.30
2018-05-26T17:42:16.379Z,84.60
2018-05-26T17:44:44.420Z,84.50
2018-05-26T17:47:13.629Z,85.90
2018-05-26T17:49:45.009Z,86.20
2018-05-26T17:52:12.467Z,86.40
2018-05-26T17:54:41.369Z,86.00
2018-05-26T17:57:09.527Z,88.00
2018-05-26T17:59:37.082Z,86.80
2018-05-26T18:02:04.670Z,86.30
2018-05-26T18:04:33.105Z,85.60
2018-05-26T18:07:12.529Z,84.20
2018-05-26T18:09:41.409Z,83.00
2018-05-26T18:12:10.170Z,81.50
2018-05-26T18:14:39.580Z,80.50
2018-05-26T18:17:07.112Z,82.30
2018-05-26T18:19:36.934Z,80.10
2018-05-26T18:22:09.635Z,80.00
2018-05-26T18:24:39.293Z,79.60
2018-05-26T18:27:08.995Z,81.30
2018-05-26T18:29:37.569Z,86.00
2018-05-26T18:32:05.070Z,86.00
2018-05-26T18:34:32.594Z,89.10
2018-05-26T18:37:05.149Z,90.60
2018-05-26T18:39:32.628Z,91.00
2018-05-26T18:42:00.169Z,91.60
2018-05-26T18:44:29.433Z,91.40
2018-05-26T18:46:58.620Z,91.70
2018-05-26T18:49:26.729Z,91.90
2018-05-26T18:52:01.655Z,93.20
2018-05-26T18:54:30.776Z,93.30
2018-05-26T18:57:01.116Z,93.70
2018-05-26T18:59:29.454Z,95.10
2018-05-26T19:02:00.355Z,96.20
2018-05-26T19:04:30.359Z,97.30
2018-05-26T19:06:59.035Z,97.50
2018-05-26T19:09:29.622Z,98.30
2018-05-26T19:12:00.610Z,99.40
2018-05-26T19:14:30.288Z,99.90
2018-05-26T19:17:02.186Z,99.90
2018-05-26T19:19:32.183Z,99.90
2018-05-26T19:22:00.204Z,99.90
2018-05-26T19:24:28.541Z,99.90
2018-05-26T19:26:56.798Z,99.90
2018-05-26T19:29:25.811Z,99.90
2018-05-26T19:31:54.301Z,99.90
2018-05-26T19:34:23.270Z,99.90
2018-05-26T19:36:54.958Z,99.90
2018-05-26T19:39:23.405Z,99.90
2018-05-26T19:41:51.473Z,99.90
2018-05-26T19:44:20.286Z,99.90
2018-05-26T19:46:47.770Z,99.90
2018-05-26T19:49:16.035Z,99.90
2018-05-26T19:51:45.210Z,99.90
2018-05-26T19:54:13.556Z,99.90
2018-05-26T19:56:44.793Z,99.90
2018-05-26T19:59:12.252Z,99.90
2018-05-26T20:01:40.532Z,99.90
2018-05-26T20:04:08.045Z,99.90
2018-05-26T20:06:38.421Z,99.90
2018-05-26T20:09:06.771Z,99.90
2018-05-26T20:11:38.393Z,99.90
2018-05-26T20:14:08.357Z,99.90
2018-05-26T20:16:36.784Z,99.90
2018-05-26T20:19:04.768Z,99.90
2018-05-26T20:21:32.360Z,99.90
2018-05-26T20:23:59.882Z,99.90
2018-05-26T20:26:27.352Z,99.90
2018-05-26T20:28:54.857Z,99.90
2018-05-26T20:31:23.164Z,99.90
2018-05-26T20:33:50.660Z,99.90
2018-05-26T20:36:19.873Z,99.90
2018-05-26T20:38:49.814Z,99.90
2018-05-26T20:41:17.288Z,99.90
2018-05-26T20:43:46.936Z,99.90
2018-05-26T20:46:15.963Z,99.90
2018-05-26T20:48:45.288Z,99.90
2018-05-26T20:51:13.775Z,99.90
2018-05-26T20:53:41.543Z,99.90
2018-05-26T20:56:10.057Z,99.90
2018-05-26T20:58:37.523Z,99.90
2018-05-26T21:01:05.043Z,99.90
2018-05-26T21:03:33.247Z,99.90
2018-05-26T21:06:01.510Z,99.90
2018-05-26T21:08:30.392Z,99.90
2018-05-26T21:10:59.129Z,99.90
2018-05-26T21:13:26.587Z,99.90
2018-05-26T21:15:54.079Z,99.90
2018-05-26T21:18:21.584Z,99.90
2018-05-26T21:20:50.816Z,99.90
2018-05-26T21:23:18.385Z,99.90
2018-05-26T21:25:45.976Z,99.90
2018-05-26T21:28:13.483Z,99.90
2018-05-26T21:30:41.108Z,99.90
2018-05-26T21:33:09.408Z,99.90
2018-05-26T21:35:36.935Z,99.90
2018-05-26T21:38:04.828Z,99.90
2018-05-26T21:40:32.376Z,99.90
2018-05-26T21:43:01.609Z,99.90
2018-05-26T21:45:29.159Z,99.90
2018-05-26T21:47:56.666Z,99.90
2018-05-26T21:50:24.167Z,99.90
2018-05-26T21:52:55.001Z,99.90
2018-05-26T21:55:22.505Z,99.90
2018-05-26T21:57:51.544Z,99.90
2018-05-26T22:00:19.103Z,99.90
2018-05-26T22:02:46.668Z,99.90
2018-05-26T22:05:14.178Z,99.90
2018-05-26T22:07:41.783Z,99.90
2018-05-26T22:10:10.223Z,99.90
2018-05-26T22:12:37.734Z,99.90
2018-05-26T22:15:05.337Z,99.90
2018-05-26T22:17:32.824Z,99.90
2018-05-26T22:20:00.362Z,99.90
2018-05-26T22:22:27.842Z,99.90
2018-05-26T22:24:55.330Z,99.90
2018-05-26T22:27:23.793Z,99.90
2018-05-26T22:29:51.396Z,99.90
2018-05-26T22:32:18.897Z,99.90
2018-05-26T22:34:46.444Z,99.90
2018-05-26T22:37:13.961Z,99.90
2018-05-26T22:39:41.505Z,99.90
2018-05-26T22:42:08.977Z,99.90
2018-05-26T22:44:36.506Z,99.90
2018-05-26T22:47:04.024Z,99.90
2018-05-26T22:49:32.381Z,99.90
2018-05-26T22:51:59.858Z,99.90
2018-05-26T22:54:32.116Z,99.90
2018-05-26T22:56:59.595Z,99.90
2018-05-26T22:59:27.125Z,99.90
2018-05-26T23:01:54.590Z,99.90
2018-05-26T23:04:22.119Z,99.90
2018-05-26T23:06:49.617Z,99.90
2018-05-26T23:09:21.664Z,99.90
2018-05-26T23:11:49.169Z,99.90
2018-05-26T23:14:16.654Z,99.90
2018-05-26T23:16:44.160Z,99.90
2018-05-26T23:19:11.761Z,99.90
2018-05-26T23:21:39.265Z,99.90
2018-05-26T23:24:06.746Z,99.90
2018-05-26T23:26:34.239Z,99.90
2018-05-26T23:29:01.814Z,99.90
2018-05-26T23:31:30.984Z,99.90
2018-05-26T23:33:58.441Z,99.90
2018-05-26T23:36:25.936Z,99.90
2018-05-26T23:38:53.406Z,99.90
2018-05-26T23:41:25.621Z,99.90
2018-05-26T23:43:53.856Z,99.90
2018-05-26T23:46:21.573Z,99.90
2018-05-26T23:48:49.791Z,99.90
2018-05-26T23:51:17.249Z,99.90
2018-05-26T23:53:44.731Z,99.90
2018-05-26T23:56:12.278Z,99.90
2018-05-26T23:58:42.669Z,99.90
